createdAt,value
2023-04-07T00:00:35.667Z,0.53
2023-04-07T00:05:53.539Z,0.52
2023-04-07T00:10:57.861Z,0.45
2023-04-07T00:16:01.449Z,0.47
2023-04-07T00:21:05.751Z,0.49
2023-04-07T00:26:09.021Z,0.53
2023-04-07T00:31:12.883Z,0.46
2023-04-07T00:36:16.610Z,0.48
2023-04-07T00:41:20.108Z,0.49
2023-04-07T00:46:24.760Z,0.60
2023-04-07T00:51:28.141Z,0.54
2023-04-07T00:56:31.453Z,0.57
2023-04-07T01:01:48.027Z,0.60
2023-04-07T01:06:53.998Z,0.68
2023-04-07T01:12:11.398Z,0.74
2023-04-07T01:17:15.782Z,0.87
2023-04-07T01:22:27.702Z,0.87
2023-04-07T01:28:06.504Z,0.86
2023-04-07T01:33:11.401Z,0.66
2023-04-07T01:38:15.884Z,0.58
2023-04-07T01:43:19.602Z,0.51
2023-04-07T01:48:23.639Z,0.50
2023-04-07T01:53:27.912Z,0.55
2023-04-07T01:58:31.087Z,0.56
2023-04-07T02:03:44.616Z,0.60
2023-04-07T02:08:51.723Z,0.69
2023-04-07T02:13:56.302Z,0.72
2023-04-07T02:19:03.368Z,0.72
2023-04-07T02:24:07.820Z,0.73
2023-04-07T02:29:10.967Z,0.70
2023-04-07T02:34:14.446Z,0.67
2023-04-07T02:39:17.960Z,0.65
2023-04-07T02:44:21.793Z,0.63
2023-04-07T02:49:25.275Z,0.57
2023-04-07T02:54:29.433Z,0.57
2023-04-07T02:59:33.257Z,0.66
2023-04-07T03:04:36.771Z,0.64
2023-04-07T03:09:40.198Z,0.61
2023-04-07T03:14:43.701Z,0.57
2023-04-07T03:19:47.423Z,0.56
2023-04-07T03:24:50.983Z,0.56
2023-04-07T03:29:55.296Z,0.54
2023-04-07T03:34:59.969Z,0.62
2023-04-07T03:40:03.586Z,0.77
2023-04-07T03:45:10.632Z,0.89
2023-04-07T03:50:17.526Z,0.93
2023-04-07T03:55:38.152Z,1.06
2023-04-07T04:00:47.295Z,1.01
2023-04-07T04:05:51.241Z,1.03
2023-04-07T04:10:57.701Z,1.06
2023-04-07T04:16:03.223Z,1.10
2023-04-07T04:21:07.196Z,0.87
2023-04-07T04:26:11.705Z,0.78
2023-04-07T04:31:16.225Z,0.89
2023-04-07T04:36:20.687Z,0.92
2023-04-07T04:41:24.042Z,0.91
2023-04-07T04:46:27.916Z,1.02
2023-04-07T04:51:31.192Z,1.03
2023-04-07T04:56:38.390Z,1.07
2023-04-07T05:01:42.398Z,1.03
2023-04-07T05:06:48.552Z,1.23
2023-04-07T05:11:52.819Z,1.27
2023-04-07T05:16:57.962Z,1.32
2023-04-07T05:22:04.690Z,1.22
2023-04-07T05:27:11.824Z,1.14
2023-04-07T05:32:15.849Z,1.15
2023-04-07T05:37:19.150Z,1.27
2023-04-07T05:42:23.442Z,1.36
2023-04-07T05:47:27.897Z,1.23
2023-04-07T05:52:31.757Z,1.24
2023-04-07T05:57:43.653Z,1.21
2023-04-07T06:02:47.219Z,1.14
2023-04-07T06:07:56.115Z,1.32
2023-04-07T06:13:02.241Z,1.31
2023-04-07T06:18:06.839Z,1.37
2023-04-07T06:23:10.096Z,1.41
2023-04-07T06:28:13.382Z,1.50
2023-04-07T06:33:16.838Z,1.54
2023-04-07T06:38:20.089Z,1.54
2023-04-07T06:43:23.292Z,1.35
2023-04-07T06:48:37.281Z,1.30
2023-04-07T06:53:41.661Z,1.32
2023-04-07T06:58:44.931Z,1.44
2023-04-07T07:03:48.291Z,1.41
2023-04-07T07:08:52.673Z,1.52
2023-04-07T07:13:55.953Z,1.70
2023-04-07T07:18:59.294Z,1.65
2023-04-07T07:24:02.730Z,1.58
2023-04-07T07:29:06.101Z,1.64
2023-04-07T07:34:09.338Z,1.74
2023-04-07T07:39:12.545Z,1.83
2023-04-07T07:44:17.409Z,1.70
2023-04-07T07:49:21.627Z,1.65
2023-04-07T07:54:25.045Z,1.67
2023-04-07T07:59:28.353Z,1.78
2023-04-07T08:04:31.573Z,1.70
2023-04-07T08:09:34.869Z,1.78
2023-04-07T08:14:38.130Z,1.82
2023-04-07T08:19:41.790Z,1.96
2023-04-07T08:24:45.089Z,1.84
2023-04-07T08:42:08.519Z,1.99
2023-04-07T08:47:12.286Z,2.05
2023-04-07T08:52:16.746Z,1.96
2023-04-07T08:57:21.174Z,1.87
2023-04-07T09:02:24.399Z,1.66
2023-04-07T09:07:27.601Z,1.65
2023-04-07T09:12:31.708Z,1.60
2023-04-07T09:17:34.955Z,1.78
2023-04-07T09:22:43.296Z,1.75
2023-04-07T09:27:56.389Z,1.82
2023-04-07T09:33:01.107Z,1.92
2023-04-07T09:38:09.713Z,2.01
2023-04-07T09:43:17.999Z,2.09
2023-04-07T09:48:22.131Z,2.25
2023-04-07T09:53:42.498Z,2.34
2023-04-07T09:58:47.587Z,2.17
2023-04-07T10:03:51.786Z,2.13
2023-04-07T10:08:55.795Z,2.19
2023-04-07T10:13:59.101Z,2.27
2023-04-07T10:19:03.572Z,2.28
2023-04-07T10:24:23.457Z,2.23
2023-04-07T10:29:27.758Z,2.34
2023-04-07T10:34:50.552Z,2.36
2023-04-07T10:40:19.621Z,2.54
2023-04-07T10:45:48.744Z,2.71
2023-04-07T10:51:08.255Z,2.65
2023-04-07T10:56:11.551Z,2.52
2023-04-07T11:01:14.662Z,2.68
2023-04-07T11:06:17.974Z,2.80
2023-04-07T11:11:37.702Z,2.79
2023-04-07T11:16:43.018Z,2.70
2023-04-07T11:21:46.940Z,2.68
2023-04-07T11:26:50.684Z,2.63
2023-04-07T11:31:54.305Z,2.63
2023-04-07T11:37:00.224Z,2.59
2023-04-07T11:42:03.338Z,2.51
2023-04-07T11:47:06.615Z,2.53
2023-04-07T11:52:09.865Z,2.57
2023-04-07T11:57:14.065Z,2.57
2023-04-07T12:02:36.189Z,2.55
2023-04-07T12:07:42.216Z,2.66
2023-04-07T12:12:46.532Z,2.85
2023-04-07T12:17:49.855Z,2.86
2023-04-07T12:22:54.192Z,2.80
2023-04-07T12:27:57.463Z,2.83
2023-04-07T12:33:01.086Z,2.91
2023-04-07T12:38:05.849Z,2.96
2023-04-07T12:43:09.145Z,2.89
2023-04-07T12:48:12.493Z,2.92
2023-04-07T12:53:15.779Z,2.96
2023-04-07T12:58:19.481Z,2.74
2023-04-07T13:03:23.323Z,2.69
2023-04-07T13:08:27.592Z,2.62
2023-04-07T13:13:32.020Z,2.68
2023-04-07T13:18:35.755Z,2.94
2023-04-07T13:23:43.358Z,2.90
2023-04-07T13:28:48.211Z,2.86
2023-04-07T13:33:52.149Z,2.90
2023-04-07T13:38:57.010Z,2.92
2023-04-07T13:44:01.468Z,2.91
2023-04-07T13:49:05.572Z,2.89
2023-04-07T13:54:09.281Z,2.79
2023-04-07T13:59:12.602Z,2.88
2023-04-07T14:04:16.044Z,2.89
2023-04-07T14:09:19.742Z,2.99
2023-04-07T14:14:23.242Z,2.86
2023-04-07T14:19:26.559Z,2.88
2023-04-07T14:24:29.722Z,2.85
2023-04-07T14:29:33.216Z,2.83
2023-04-07T14:34:36.455Z,2.94
2023-04-07T14:39:39.869Z,2.86
2023-04-07T14:44:43.426Z,2.98
2023-04-07T14:49:47.472Z,3.09
2023-04-07T14:54:50.828Z,3.03
2023-04-07T14:59:54.195Z,3.04
2023-04-07T15:04:57.671Z,3.04
2023-04-07T15:10:12.720Z,2.93
2023-04-07T15:15:16.848Z,2.83
2023-04-07T15:20:38.975Z,3.01
2023-04-07T15:25:51.663Z,2.97
2023-04-07T15:30:56.089Z,3.06
2023-04-07T15:36:01.569Z,3.04
2023-04-07T15:41:05.240Z,3.06
2023-04-07T15:46:09.184Z,3.09
2023-04-07T15:51:12.642Z,3.02
2023-04-07T15:56:18.739Z,2.74
2023-04-07T16:01:22.467Z,2.76
2023-04-07T16:06:27.676Z,2.86
2023-04-07T16:11:37.099Z,3.06
2023-04-07T16:16:44.814Z,3.15
2023-04-07T16:21:51.773Z,2.72
2023-04-07T16:26:58.463Z,2.81
2023-04-07T16:32:05.334Z,2.90
2023-04-07T16:37:10.099Z,2.94
2023-04-07T16:42:13.553Z,2.48
2023-04-07T16:47:17.088Z,2.77
2023-04-07T16:52:21.101Z,2.86
2023-04-07T16:57:25.792Z,2.85
2023-04-07T17:02:29.479Z,2.75
2023-04-07T17:07:33.223Z,2.80
2023-04-07T17:12:36.802Z,2.83
2023-04-07T17:17:48.038Z,2.85
2023-04-07T17:22:51.760Z,2.76
2023-04-07T17:27:56.055Z,2.77
2023-04-07T17:32:59.821Z,2.71
2023-04-07T17:38:03.496Z,2.66
2023-04-07T17:43:06.891Z,2.62
2023-04-07T17:48:12.292Z,2.64
2023-04-07T17:53:16.282Z,2.54
2023-04-07T17:58:21.310Z,2.51
2023-04-07T18:03:25.035Z,2.62
2023-04-07T18:08:30.962Z,2.57
2023-04-07T18:13:34.428Z,2.60
2023-04-07T18:18:38.277Z,2.58
2023-04-07T18:24:20.832Z,2.58
2023-04-07T18:29:24.691Z,2.54
2023-04-07T18:34:30.150Z,2.50
2023-04-07T18:39:33.751Z,2.63
2023-04-07T18:44:37.980Z,2.59
2023-04-07T18:49:41.399Z,2.71
2023-04-07T18:54:45.113Z,2.88
2023-04-07T18:59:49.129Z,2.78
2023-04-07T19:04:52.528Z,2.80
2023-04-07T19:09:56.991Z,2.78
2023-04-07T19:15:03.993Z,2.86
2023-04-07T19:20:08.659Z,2.90
2023-04-07T19:25:55.069Z,2.98
2023-04-07T19:30:58.789Z,3.08
2023-04-07T19:36:04.613Z,3.09
2023-04-07T19:41:08.334Z,3.08
2023-04-07T19:46:21.282Z,3.20
2023-04-07T19:51:25.970Z,3.10
2023-04-07T19:56:29.405Z,3.22
2023-04-07T20:01:33.469Z,3.31
2023-04-07T20:06:39.962Z,3.26
2023-04-07T20:11:46.653Z,3.16
2023-04-07T20:16:50.220Z,3.16
2023-04-07T20:22:08.005Z,3.28
2023-04-07T20:27:11.536Z,3.37
2023-04-07T20:32:15.060Z,3.30
2023-04-07T20:37:19.553Z,3.28
2023-04-07T20:42:23.057Z,3.33
2023-04-07T20:47:26.584Z,3.14
2023-04-07T20:52:30.051Z,2.97
2023-04-07T20:57:33.597Z,2.89
2023-04-07T21:02:38.400Z,2.93
2023-04-07T21:07:41.958Z,2.95
2023-04-07T21:12:45.733Z,2.95
2023-04-07T21:17:49.224Z,2.91
2023-04-07T21:22:53.068Z,2.92
2023-04-07T21:27:57.082Z,3.00
2023-04-07T21:33:00.743Z,3.04
2023-04-07T21:38:04.570Z,3.03
2023-04-07T21:43:08.439Z,3.09
2023-04-07T21:48:12.075Z,2.99
2023-04-07T21:53:15.593Z,2.95
2023-04-07T21:58:18.971Z,2.94
2023-04-07T22:03:22.595Z,2.73
2023-04-07T22:08:27.436Z,2.54
2023-04-07T22:13:30.781Z,2.54
2023-04-07T22:18:34.158Z,2.54
2023-04-07T22:23:37.564Z,2.51
2023-04-07T22:28:41.485Z,2.58
2023-04-07T22:33:44.948Z,2.52
2023-04-07T22:38:48.866Z,2.66
2023-04-07T22:43:52.792Z,2.46
2023-04-07T22:48:56.570Z,2.35
2023-04-07T22:54:00.600Z,2.34
2023-04-07T22:59:05.978Z,2.37
2023-04-07T23:04:18.358Z,2.33
2023-04-07T23:09:31.429Z,2.13
2023-04-07T23:14:34.865Z,2.09
2023-04-07T23:19:38.148Z,1.87
2023-04-07T23:24:41.866Z,1.74
2023-04-07T23:29:45.407Z,1.83
2023-04-07T23:34:48.712Z,1.80
2023-04-07T23:39:52.030Z,1.76
2023-04-07T23:44:55.570Z,1.69
2023-04-07T23:50:00.369Z,1.58
2023-04-07T23:55:04.059Z,1.53
